sensor_id;sensor_type;location;lat;lon;timestamp;pressure;altitude;pressure_sealevel;temperature;humidity
58955;BME280;45815;52.334;5.024;2022-12-05T00:03:42;101946.84;;;5.32;100.00
58955;BME280;45815;52.334;5.024;2022-12-05T00:06:07;101946.13;;;5.35;100.00
58955;BME280;45815;52.334;5.024;2022-12-05T00:08:33;101946.41;;;5.39;100.00
58955;BME280;45815;52.334;5.024;2022-12-05T00:10:58;101937.50;;;5.36;100.00
58955;BME280;45815;52.334;5.024;2022-12-05T00:13:24;101940.47;;;5.42;100.00
58955;BME280;45815;52.334;5.024;2022-12-05T00:15:49;101941.19;;;5.39;100.00
58955;BME280;45815;52.334;5.024;2022-12-05T00:18:15;101938.59;;;5.39;100.00
58955;BME280;45815;52.334;5.024;2022-12-05T00:20:47;101943.22;;;5.45;100.00
58955;BME280;45815;52.334;5.024;2022-12-05T00:23:13;101948.81;;;5.51;100.00
58955;BME280;45815;52.334;5.024;2022-12-05T00:25:39;101941.34;;;5.42;100.00
58955;BME280;45815;52.334;5.024;2022-12-05T00:28:05;101947.19;;;5.53;100.00
58955;BME280;45815;52.334;5.024;2022-12-05T00:30:31;101941.88;;;5.52;100.00
58955;BME280;45815;52.334;5.024;2022-12-05T00:32:57;101941.97;;;5.53;100.00
58955;BME280;45815;52.334;5.024;2022-12-05T00:35:22;101935.31;;;5.58;100.00
58955;BME280;45815;52.334;5.024;2022-12-05T00:37:48;101947.34;;;5.56;100.00
58955;BME280;45815;52.334;5.024;2022-12-05T00:40:13;101950.94;;;5.58;100.00
58955;BME280;45815;52.334;5.024;2022-12-05T00:42:39;101948.44;;;5.60;100.00
58955;BME280;45815;52.334;5.024;2022-12-05T00:45:05;101957.78;;;5.56;100.00
58955;BME280;45815;52.334;5.024;2022-12-05T00:47:34;101948.69;;;5.64;100.00
58955;BME280;45815;52.334;5.024;2022-12-05T00:50:00;101947.72;;;5.62;100.00
58955;BME280;45815;52.334;5.024;2022-12-05T00:52:25;101951.31;;;5.64;100.00
58955;BME280;45815;52.334;5.024;2022-12-05T00:54:51;101948.69;;;5.64;100.00
58955;BME280;45815;52.334;5.024;2022-12-05T00:57:16;101952.66;;;5.58;100.00
58955;BME280;45815;52.334;5.024;2022-12-05T00:59:41;101946.56;;;5.57;100.00
58955;BME280;45815;52.334;5.024;2022-12-05T01:02:07;101952.00;;;5.62;100.00
58955;BME280;45815;52.334;5.024;2022-12-05T01:04:32;101957.03;;;5.59;100.00
58955;BME280;45815;52.334;5.024;2022-12-05T01:06:58;101953.66;;;5.60;100.00
58955;BME280;45815;52.334;5.024;2022-12-05T01:09:24;101956.31;;;5.61;100.00
58955;BME280;45815;52.334;5.024;2022-12-05T01:11:50;101947.88;;;5.65;100.00
58955;BME280;45815;52.334;5.024;2022-12-05T01:14:17;101954.19;;;5.69;100.00
58955;BME280;45815;52.334;5.024;2022-12-05T01:16:44;101955.84;;;5.68;100.00
58955;BME280;45815;52.334;5.024;2022-12-05T01:19:13;101950.38;;;5.64;100.00
58955;BME280;45815;52.334;5.024;2022-12-05T01:21:42;101941.78;;;5.65;100.00
58955;BME280;45815;52.334;5.024;2022-12-05T01:24:09;101941.53;;;5.60;100.00
58955;BME280;45815;52.334;5.024;2022-12-05T01:26:35;101944.53;;;5.68;100.00
58955;BME280;45815;52.334;5.024;2022-12-05T01:29:01;101953.44;;;5.71;100.00
58955;BME280;45815;52.334;5.024;2022-12-05T01:31:29;101949.84;;;5.69;100.00
58955;BME280;45815;52.334;5.024;2022-12-05T01:33:57;101948.25;;;5.71;100.00
58955;BME280;45815;52.334;5.024;2022-12-05T01:36:23;101956.06;;;5.71;100.00
58955;BME280;45815;52.334;5.024;2022-12-05T01:38:49;101950.47;;;5.65;100.00
58955;BME280;45815;52.334;5.024;2022-12-05T01:41:18;101946.16;;;5.66;100.00
58955;BME280;45815;52.334;5.024;2022-12-05T01:44:58;101940.81;;;5.48;100.00
58955;BME280;45815;52.334;5.024;2022-12-05T01:46:53;101957.31;;;5.63;100.00
58955;BME280;45815;52.334;5.024;2022-12-05T01:49:20;101963.34;;;5.62;100.00
58955;BME280;45815;52.334;5.024;2022-12-05T01:51:50;101964.13;;;5.61;100.00
58955;BME280;45815;52.334;5.024;2022-12-05T01:54:17;101956.97;;;5.57;100.00
58955;BME280;45815;52.334;5.024;2022-12-05T01:56:48;101960.53;;;5.59;100.00
58955;BME280;45815;52.334;5.024;2022-12-05T01:59:18;101947.97;;;5.52;100.00
58955;BME280;45815;52.334;5.024;2022-12-05T02:01:45;101960.47;;;5.58;100.00
58955;BME280;45815;52.334;5.024;2022-12-05T02:04:11;101961.38;;;5.58;100.00
58955;BME280;45815;52.334;5.024;2022-12-05T02:06:36;101965.75;;;5.59;100.00
58955;BME280;45815;52.334;5.024;2022-12-05T02:09:02;101966.41;;;5.55;100.00
58955;BME280;45815;52.334;5.024;2022-12-05T02:11:29;101964.13;;;5.61;100.00
58955;BME280;45815;52.334;5.024;2022-12-05T02:25:06;101954.53;;;5.45;100.00
58955;BME280;45815;52.334;5.024;2022-12-05T02:28:06;101946.13;;;5.35;100.00
58955;BME280;45815;52.334;5.024;2022-12-05T02:30:38;101952.03;;;5.47;100.00
58955;BME280;45815;52.334;5.024;2022-12-05T02:33:16;101958.13;;;5.47;100.00
58955;BME280;45815;52.334;5.024;2022-12-05T02:38:40;101947.72;;;5.47;100.00
58955;BME280;45815;52.334;5.024;2022-12-05T02:41:20;101953.59;;;5.43;100.00
58955;BME280;45815;52.334;5.024;2022-12-05T02:44:08;101956.91;;;5.41;100.00
58955;BME280;45815;52.334;5.024;2022-12-05T02:46:38;101955.78;;;5.52;100.00
58955;BME280;45815;52.334;5.024;2022-12-05T02:49:08;101961.00;;;5.52;100.00
58955;BME280;45815;52.334;5.024;2022-12-05T02:51:39;101959.38;;;5.54;100.00
58955;BME280;45815;52.334;5.024;2022-12-05T02:54:09;101954.00;;;5.51;100.00
58955;BME280;45815;52.334;5.024;2022-12-05T02:56:36;101952.41;;;5.53;100.00
58955;BME280;45815;52.334;5.024;2022-12-05T02:59:02;101944.22;;;5.47;100.00
58955;BME280;45815;52.334;5.024;2022-12-05T03:01:29;101960.22;;;5.53;100.00
58955;BME280;45815;52.334;5.024;2022-12-05T03:03:57;101951.50;;;5.53;100.00
58955;BME280;45815;52.334;5.024;2022-12-05T03:06:30;101965.31;;;5.52;100.00
58955;BME280;45815;52.334;5.024;2022-12-05T03:09:08;101967.50;;;5.44;100.00
58955;BME280;45815;52.334;5.024;2022-12-05T03:11:43;101966.16;;;5.50;100.00
58955;BME280;45815;52.334;5.024;2022-12-05T03:14:17;101957.41;;;5.50;100.00
58955;BME280;45815;52.334;5.024;2022-12-05T03:16:51;101958.50;;;5.54;100.00
58955;BME280;45815;52.334;5.024;2022-12-05T03:19:25;101956.50;;;5.49;100.00
58955;BME280;45815;52.334;5.024;2022-12-05T03:21:59;101962.63;;;5.50;100.00
58955;BME280;45815;52.334;5.024;2022-12-05T03:24:25;101960.28;;;5.55;100.00
58955;BME280;45815;52.334;5.024;2022-12-05T03:29:55;101969.81;;;5.54;100.00
58955;BME280;45815;52.334;5.024;2022-12-05T03:35:45;101958.59;;;5.40;100.00
58955;BME280;45815;52.334;5.024;2022-12-05T03:38:24;101977.44;;;5.51;100.00
58955;BME280;45815;52.334;5.024;2022-12-05T03:40:59;101972.25;;;5.51;100.00
58955;BME280;45815;52.334;5.024;2022-12-05T03:46:08;101978.59;;;5.56;100.00
58955;BME280;45815;52.334;5.024;2022-12-05T03:51:15;101970.69;;;5.55;100.00
58955;BME280;45815;52.334;5.024;2022-12-05T03:53:52;101975.91;;;5.55;100.00
58955;BME280;45815;52.334;5.024;2022-12-05T03:56:29;101968.34;;;5.59;100.00
58955;BME280;45815;52.334;5.024;2022-12-05T03:59:01;101980.75;;;5.63;100.00
58955;BME280;45815;52.334;5.024;2022-12-05T04:01:30;101974.47;;;5.60;100.00
58955;BME280;45815;52.334;5.024;2022-12-05T04:04:03;101980.59;;;5.60;100.00
58955;BME280;45815;52.334;5.024;2022-12-05T04:06:34;101981.56;;;5.62;100.00
58955;BME280;45815;52.334;5.024;2022-12-05T04:09:04;101985.97;;;5.63;100.00
58955;BME280;45815;52.334;5.024;2022-12-05T04:11:34;101987.78;;;5.64;100.00
58955;BME280;45815;52.334;5.024;2022-12-05T04:14:11;101986.59;;;5.59;100.00
58955;BME280;45815;52.334;5.024;2022-12-05T04:17:12;101987.13;;;5.54;100.00
58955;BME280;45815;52.334;5.024;2022-12-05T04:20:00;101989.75;;;5.54;100.00
58955;BME280;45815;52.334;5.024;2022-12-05T04:22:46;101991.16;;;5.63;100.00
58955;BME280;45815;52.334;5.024;2022-12-05T04:25:13;101993.78;;;5.63;100.00
58955;BME280;45815;52.334;5.024;2022-12-05T04:31:04;101980.59;;;5.60;100.00
58955;BME280;45815;52.334;5.024;2022-12-05T04:33:52;101977.63;;;5.54;100.00
58955;BME280;45815;52.334;5.024;2022-12-05T04:36:26;101971.09;;;5.46;100.00
58955;BME280;45815;52.334;5.024;2022-12-05T04:41:28;101986.31;;;5.55;100.00
58955;BME280;45815;52.334;5.024;2022-12-05T04:43:58;101982.19;;;5.58;100.00
58955;BME280;45815;52.334;5.024;2022-12-05T04:46:26;101977.00;;;5.58;100.00
58955;BME280;45815;52.334;5.024;2022-12-05T04:48:55;101976.25;;;5.61;100.00
58955;BME280;45815;52.334;5.024;2022-12-05T04:51:25;101976.25;;;5.61;100.00
58955;BME280;45815;52.334;5.024;2022-12-05T04:54:17;101982.75;;;5.53;100.00
58955;BME280;45815;52.334;5.024;2022-12-05T04:56:43;101981.69;;;5.34;100.00
58955;BME280;45815;52.334;5.024;2022-12-05T04:59:10;101980.06;;;5.51;100.00
58955;BME280;45815;52.334;5.024;2022-12-05T05:01:43;101974.13;;;5.54;100.00
58955;BME280;45815;52.334;5.024;2022-12-05T05:04:14;101980.41;;;5.57;100.00
58955;BME280;45815;52.334;5.024;2022-12-05T05:06:41;101971.88;;;5.60;100.00
58955;BME280;45815;52.334;5.024;2022-12-05T05:09:07;101964.34;;;5.49;100.00
58955;BME280;45815;52.334;5.024;2022-12-05T05:11:34;101979.50;;;5.57;100.00
58955;BME280;45815;52.334;5.024;2022-12-05T05:14:01;101982.03;;;5.55;100.00
58955;BME280;45815;52.334;5.024;2022-12-05T05:16:39;101976.63;;;5.52;100.00
58955;BME280;45815;52.334;5.024;2022-12-05T05:19:05;101986.53;;;5.58;100.00
58955;BME280;45815;52.334;5.024;2022-12-05T05:21:36;101986.31;;;5.55;100.00
58955;BME280;45815;52.334;5.024;2022-12-05T05:24:03;101990.63;;;5.54;100.00
58955;BME280;45815;52.334;5.024;2022-12-05T05:26:30;101988.13;;;5.56;100.00
58955;BME280;45815;52.334;5.024;2022-12-05T05:28:56;101991.47;;;5.53;100.00
58955;BME280;45815;52.334;5.024;2022-12-05T05:31:22;101990.63;;;5.54;100.00
58955;BME280;45815;52.334;5.024;2022-12-05T05:33:52;101987.03;;;5.52;100.00
58955;BME280;45815;52.334;5.024;2022-12-05T05:36:18;101990.63;;;5.54;100.00
58955;BME280;45815;52.334;5.024;2022-12-05T05:38:47;101993.25;;;5.54;100.00
58955;BME280;45815;52.334;5.024;2022-12-05T05:41:15;101992.34;;;5.54;100.00
58955;BME280;45815;52.334;5.024;2022-12-05T05:43:41;101994.34;;;5.58;100.00
58955;BME280;45815;52.334;5.024;2022-12-05T05:46:08;101994.41;;;5.59;100.00
58955;BME280;45815;52.334;5.024;2022-12-05T05:48:33;101994.22;;;5.56;100.00
58955;BME280;45815;52.334;5.024;2022-12-05T05:51:00;101998.81;;;5.60;100.00
58955;BME280;45815;52.334;5.024;2022-12-05T05:53:25;101999.59;;;5.59;100.00
58955;BME280;45815;52.334;5.024;2022-12-05T05:55:51;101998.00;;;5.61;100.00
58955;BME280;45815;52.334;5.024;2022-12-05T05:58:16;101998.88;;;5.62;100.00
58955;BME280;45815;52.334;5.024;2022-12-05T06:00:41;102011.13;;;5.63;100.00
58955;BME280;45815;52.334;5.024;2022-12-05T06:03:07;102003.31;;;5.63;100.00
58955;BME280;45815;52.334;5.024;2022-12-05T06:05:33;102001.41;;;5.60;100.00
58955;BME280;45815;52.334;5.024;2022-12-05T06:07:58;102004.19;;;5.63;100.00
58955;BME280;45815;52.334;5.024;2022-12-05T06:10:23;102000.59;;;5.61;100.00
58955;BME280;45815;52.334;5.024;2022-12-05T06:12:49;101998.25;;;5.66;100.00
58955;BME280;45815;52.334;5.024;2022-12-05T06:15:14;102006.34;;;5.70;100.00
58955;BME280;45815;52.334;5.024;2022-12-05T06:17:40;102007.16;;;5.69;100.00
58955;BME280;45815;52.334;5.024;2022-12-05T06:20:07;102008.16;;;5.71;100.00
58955;BME280;45815;52.334;5.024;2022-12-05T06:22:32;102009.84;;;5.71;100.00
58955;BME280;45815;52.334;5.024;2022-12-05T06:24:58;102003.72;;;5.70;100.00
58955;BME280;45815;52.334;5.024;2022-12-05T06:27:24;102010.75;;;5.71;100.00
58955;BME280;45815;52.334;5.024;2022-12-05T06:29:49;102003.00;;;5.73;100.00
58955;BME280;45815;52.334;5.024;2022-12-05T06:32:15;102012.53;;;5.72;100.00
58955;BME280;45815;52.334;5.024;2022-12-05T06:34:40;102014.25;;;5.72;100.00
58955;BME280;45815;52.334;5.024;2022-12-05T06:37:06;102018.38;;;5.68;100.00
58955;BME280;45815;52.334;5.024;2022-12-05T06:39:32;102013.16;;;5.68;100.00
58955;BME280;45815;52.334;5.024;2022-12-05T06:41:57;102027.28;;;5.72;100.00
58955;BME280;45815;52.334;5.024;2022-12-05T06:44:23;102018.44;;;5.85;100.00
58955;BME280;45815;52.334;5.024;2022-12-05T06:46:52;102015.38;;;5.92;100.00
58955;BME280;45815;52.334;5.024;2022-12-05T06:49:18;102007.69;;;5.79;100.00
58955;BME280;45815;52.334;5.024;2022-12-05T06:51:44;102016.50;;;5.81;100.00
58955;BME280;45815;52.334;5.024;2022-12-05T06:54:13;102026.09;;;5.82;100.00
58955;BME280;45815;52.334;5.024;2022-12-05T06:56:38;102017.28;;;5.80;100.00
58955;BME280;45815;52.334;5.024;2022-12-05T06:59:04;102018.13;;;5.79;100.00
58955;BME280;45815;52.334;5.024;2022-12-05T07:01:29;102025.81;;;5.77;100.00
58955;BME280;45815;52.334;5.024;2022-12-05T07:04:20;102029.41;;;5.79;100.00
58955;BME280;45815;52.334;5.024;2022-12-05T07:06:48;102032.03;;;5.79;100.00
58955;BME280;45815;52.334;5.024;2022-12-05T07:09:17;102031.94;;;5.78;100.00
58955;BME280;45815;52.334;5.024;2022-12-05T07:11:48;102040.84;;;5.81;100.00
58955;BME280;45815;52.334;5.024;2022-12-05T07:14:14;102036.34;;;5.79;100.00
58955;BME280;45815;52.334;5.024;2022-12-05T07:16:40;102042.63;;;5.82;100.00
58955;BME280;45815;52.334;5.024;2022-12-05T07:19:05;102042.09;;;5.88;100.00
58955;BME280;45815;52.334;5.024;2022-12-05T07:21:31;102044.28;;;5.95;100.00
58955;BME280;45815;52.334;5.024;2022-12-05T07:23:56;102041.00;;;5.99;100.00
58955;BME280;45815;52.334;5.024;2022-12-05T07:26:22;102044.44;;;5.98;100.00
58955;BME280;45815;52.334;5.024;2022-12-05T07:28:49;102041.81;;;5.98;100.00
58955;BME280;45815;52.334;5.024;2022-12-05T07:31:17;102041.66;;;5.95;100.00
58955;BME280;45815;52.334;5.024;2022-12-05T07:33:44;102047.03;;;5.98;100.00
58955;BME280;45815;52.334;5.024;2022-12-05T07:36:14;102046.22;;;5.99;100.00
58955;BME280;45815;52.334;5.024;2022-12-05T07:38:41;102052.63;;;6.04;100.00
58955;BME280;45815;52.334;5.024;2022-12-05T07:41:09;102044.84;;;6.06;100.00
58955;BME280;45815;52.334;5.024;2022-12-05T07:43:34;102046.66;;;6.07;100.00
58955;BME280;45815;52.334;5.024;2022-12-05T07:46:02;102048.63;;;6.11;100.00
58955;BME280;45815;52.334;5.024;2022-12-05T07:48:27;102051.31;;;6.12;100.00
58955;BME280;45815;52.334;5.024;2022-12-05T07:50:53;102054.75;;;6.11;100.00
58955;BME280;45815;52.334;5.024;2022-12-05T07:53:18;102056.38;;;6.09;100.00
58955;BME280;45815;52.334;5.024;2022-12-05T07:55:44;102060.75;;;6.10;100.00
58955;BME280;45815;52.334;5.024;2022-12-05T07:58:09;102053.13;;;6.13;100.00
58955;BME280;45815;52.334;5.024;2022-12-05T08:00:34;102060.84;;;6.12;100.00
58955;BME280;45815;52.334;5.024;2022-12-05T08:03:01;102061.91;;;6.16;100.00
58955;BME280;45815;52.334;5.024;2022-12-05T08:05:27;102059.31;;;6.16;100.00
58955;BME280;45815;52.334;5.024;2022-12-05T08:07:52;102056.38;;;6.09;100.00
58955;BME280;45815;52.334;5.024;2022-12-05T08:10:18;102060.59;;;6.07;100.00
58955;BME280;45815;52.334;5.024;2022-12-05T08:12:43;102060.84;;;6.12;100.00
58955;BME280;45815;52.334;5.024;2022-12-05T08:15:09;102046.56;;;6.05;100.00
58955;BME280;45815;52.334;5.024;2022-12-05T08:17:34;102072.53;;;6.19;100.00
58955;BME280;45815;52.334;5.024;2022-12-05T08:19:59;102067.13;;;6.16;100.00
58955;BME280;45815;52.334;5.024;2022-12-05T08:22:25;102074.94;;;6.16;100.00
58955;BME280;45815;52.334;5.024;2022-12-05T08:24:50;102072.34;;;6.16;100.00
58955;BME280;45815;52.334;5.024;2022-12-05T08:27:15;102073.00;;;6.11;100.00
58955;BME280;45815;52.334;5.024;2022-12-05T08:29:41;102072.91;;;6.10;100.00
58955;BME280;45815;52.334;5.024;2022-12-05T08:32:06;102075.59;;;6.11;100.00
58955;BME280;45815;52.334;5.024;2022-12-05T08:34:32;102071.28;;;6.12;100.00
58955;BME280;45815;52.334;5.024;2022-12-05T08:36:57;102077.56;;;6.16;100.00
58955;BME280;45815;52.334;5.024;2022-12-05T08:39:22;102074.00;;;6.13;100.00
58955;BME280;45815;52.334;5.024;2022-12-05T08:41:48;102086.19;;;6.15;100.00
58955;BME280;45815;52.334;5.024;2022-12-05T08:44:15;102082.88;;;6.17;100.00
58955;BME280;45815;52.334;5.024;2022-12-05T08:46:43;102079.47;;;6.18;100.00
58955;BME280;45815;52.334;5.024;2022-12-05T08:49:09;102081.34;;;6.21;100.00
58955;BME280;45815;52.334;5.024;2022-12-05T08:51:36;102085.91;;;6.25;100.00
58955;BME280;45815;52.334;5.024;2022-12-05T08:54:04;102083.47;;;6.28;100.00
58955;BME280;45815;52.334;5.024;2022-12-05T08:56:30;102087.63;;;6.24;100.00
58955;BME280;45815;52.334;5.024;2022-12-05T08:58:57;102091.31;;;6.28;100.00
58955;BME280;45815;52.334;5.024;2022-12-05T09:01:22;102086.00;;;6.26;100.00
58955;BME280;45815;52.334;5.024;2022-12-05T09:03:50;102092.09;;;6.27;100.00
58955;BME280;45815;52.334;5.024;2022-12-05T09:06:21;102091.84;;;6.22;100.00
58955;BME280;45815;52.334;5.024;2022-12-05T09:08:47;102091.22;;;6.26;100.00
58955;BME280;45815;52.334;5.024;2022-12-05T09:11:16;102086.88;;;6.27;100.00
58955;BME280;45815;52.334;5.024;2022-12-05T09:13:43;102081.34;;;6.21;100.00
58955;BME280;45815;52.334;5.024;2022-12-05T09:16:20;102097.16;;;6.24;100.00
58955;BME280;45815;52.334;5.024;2022-12-05T09:18:47;102098.19;;;6.27;100.00
58955;BME280;45815;52.334;5.024;2022-12-05T09:21:20;102095.53;;;6.26;100.00
58955;BME280;45815;52.334;5.024;2022-12-05T09:23:47;102093.00;;;6.27;100.00
58955;BME280;45815;52.334;5.024;2022-12-05T09:26:14;102104.34;;;6.28;100.00
58955;BME280;45815;52.334;5.024;2022-12-05T09:28:40;102103.63;;;6.30;100.00
58955;BME280;45815;52.334;5.024;2022-12-05T09:31:12;102115.94;;;6.33;100.00
58955;BME280;45815;52.334;5.024;2022-12-05T09:33:38;102118.53;;;6.33;100.00
58955;BME280;45815;52.334;5.024;2022-12-05T09:36:05;102123.75;;;6.33;100.00
58955;BME280;45815;52.334;5.024;2022-12-05T09:38:31;102105.81;;;6.23;100.00
58955;BME280;45815;52.334;5.024;2022-12-05T09:43:52;102104.72;;;6.19;100.00
58955;BME280;45815;52.334;5.024;2022-12-05T09:49:12;102127.41;;;6.37;100.00
58955;BME280;45815;52.334;5.024;2022-12-05T09:51:42;102116.03;;;6.34;100.00
58955;BME280;45815;52.334;5.024;2022-12-05T09:54:10;102117.97;;;6.39;100.00
58955;BME280;45815;52.334;5.024;2022-12-05T09:56:37;102122.66;;;6.44;100.00
58955;BME280;45815;52.334;5.024;2022-12-05T09:59:02;102126.88;;;6.42;100.00
58955;BME280;45815;52.334;5.024;2022-12-05T10:04:37;102132.72;;;6.38;100.00
58955;BME280;45815;52.334;5.024;2022-12-05T10:07:24;102125.47;;;6.32;100.00
58955;BME280;45815;52.334;5.024;2022-12-05T10:10:24;102122.50;;;6.26;100.00
58955;BME280;45815;52.334;5.024;2022-12-05T10:13:21;102131.22;;;6.27;100.00
58955;BME280;45815;52.334;5.024;2022-12-05T10:15:53;102123.84;;;6.34;100.00
58955;BME280;45815;52.334;5.024;2022-12-05T10:18:38;102129.50;;;6.27;100.00
58955;BME280;45815;52.334;5.024;2022-12-05T10:21:24;102126.25;;;6.31;100.00
58955;BME280;45815;52.334;5.024;2022-12-05T10:23:57;102125.63;;;6.36;100.00
58955;BME280;45815;52.334;5.024;2022-12-05T10:26:27;102123.13;;;6.37;100.00
58955;BME280;45815;52.334;5.024;2022-12-05T10:31:43;102119.78;;;6.40;100.00
58955;BME280;45815;52.334;5.024;2022-12-05T10:34:16;102123.38;;;6.42;100.00
58955;BME280;45815;52.334;5.024;2022-12-05T10:36:55;102118.38;;;6.30;100.00
58955;BME280;45815;52.334;5.024;2022-12-05T10:39:22;102119.06;;;6.42;100.00
58955;BME280;45815;52.334;5.024;2022-12-05T10:41:48;102108.47;;;6.39;100.00
58955;BME280;45815;52.334;5.024;2022-12-05T10:44:14;102117.44;;;6.44;100.00
58955;BME280;45815;52.334;5.024;2022-12-05T10:46:39;102104.13;;;6.40;100.00
58955;BME280;45815;52.334;5.024;2022-12-05T10:49:10;102114.00;;;6.45;100.00
58955;BME280;45815;52.334;5.024;2022-12-05T10:51:36;102109.69;;;6.46;100.00
58955;BME280;45815;52.334;5.024;2022-12-05T10:54:14;102113.84;;;6.42;100.00
58955;BME280;45815;52.334;5.024;2022-12-05T10:56:48;102113.84;;;6.42;100.00
58955;BME280;45815;52.334;5.024;2022-12-05T10:59:20;102120.47;;;6.52;100.00
58955;BME280;45815;52.334;5.024;2022-12-05T11:01:48;102109.13;;;6.51;100.00
58955;BME280;45815;52.334;5.024;2022-12-05T11:04:39;102109.94;;;6.50;100.00
58955;BME280;45815;52.334;5.024;2022-12-05T11:07:06;102095.91;;;6.48;100.00
58955;BME280;45815;52.334;5.024;2022-12-05T11:09:37;102111.13;;;6.55;100.00
58955;BME280;45815;52.334;5.024;2022-12-05T11:14:37;102111.78;;;6.68;100.00
58955;BME280;45815;52.334;5.024;2022-12-05T11:17:04;102108.34;;;6.69;100.00
58955;BME280;45815;52.334;5.024;2022-12-05T11:19:36;102107.31;;;6.65;100.00
58955;BME280;45815;52.334;5.024;2022-12-05T11:22:02;102112.03;;;6.41;100.00
58955;BME280;45815;52.334;5.024;2022-12-05T11:24:33;102112.06;;;6.58;100.00
58955;BME280;45815;52.334;5.024;2022-12-05T11:27:18;102110.28;;;6.57;100.00
58955;BME280;45815;52.334;5.024;2022-12-05T11:30:17;102097.50;;;6.61;100.00
58955;BME280;45815;52.334;5.024;2022-12-05T11:32:45;102111.78;;;6.68;100.00
58955;BME280;45815;52.334;5.024;2022-12-05T11:38:03;102114.13;;;6.63;100.00
58955;BME280;45815;52.334;5.024;2022-12-05T11:40:34;102105.44;;;6.63;100.00
58955;BME280;45815;52.334;5.024;2022-12-05T11:43:44;102112.91;;;6.57;100.00
58955;BME280;45815;52.334;5.024;2022-12-05T11:46:19;102114.19;;;6.65;100.00
58955;BME280;45815;52.334;5.024;2022-12-05T11:54:54;102103.44;;;6.59;100.00
58955;BME280;45815;52.334;5.024;2022-12-05T12:00:23;102110.53;;;6.61;100.00
58955;BME280;45815;52.334;5.024;2022-12-05T12:11:21;102092.19;;;6.60;100.00
58955;BME280;45815;52.334;5.024;2022-12-05T12:14:18;102104.34;;;6.59;100.00
58955;BME280;45815;52.334;5.024;2022-12-05T12:17:19;102102.47;;;6.57;100.00
58955;BME280;45815;52.334;5.024;2022-12-05T12:20:12;102106.06;;;6.59;100.00
58955;BME280;45815;52.334;5.024;2022-12-05T12:33:33;102096.13;;;6.68;100.00
58955;BME280;45815;52.334;5.024;2022-12-05T12:39:18;102104.59;;;6.64;100.00
58955;BME280;45815;52.334;5.024;2022-12-05T12:44:44;102089.59;;;6.76;100.00
58955;BME280;45815;52.334;5.024;2022-12-05T12:53:30;102084.38;;;6.60;100.00
58955;BME280;45815;52.334;5.024;2022-12-05T12:58:50;102076.00;;;6.65;100.00
58955;BME280;45815;52.334;5.024;2022-12-05T13:04:02;102076.25;;;6.70;100.00
58955;BME280;45815;52.334;5.024;2022-12-05T13:06:42;102071.81;;;6.69;100.00
58955;BME280;45815;52.334;5.024;2022-12-05T13:09:27;102072.81;;;6.71;100.00
58955;BME280;45815;52.334;5.024;2022-12-05T13:11:59;102070.69;;;6.80;100.00
58955;BME280;45815;52.334;5.024;2022-12-05T13:14:29;102077.88;;;6.84;100.00
58955;BME280;45815;52.334;5.024;2022-12-05T13:16:57;102079.66;;;6.85;100.00
58955;BME280;45815;52.334;5.024;2022-12-05T13:21:51;102081.28;;;6.83;100.00
58955;BME280;45815;52.334;5.024;2022-12-05T13:24:19;102083.84;;;6.82;100.00
58955;BME280;45815;52.334;5.024;2022-12-05T13:26:48;102079.16;;;6.76;100.00
58955;BME280;45815;52.334;5.024;2022-12-05T13:29:21;102085.13;;;6.73;100.00
58955;BME280;45815;52.334;5.024;2022-12-05T13:31:50;102079.84;;;6.72;100.00
58955;BME280;45815;52.334;5.024;2022-12-05T13:36:52;102084.13;;;6.71;100.00
58955;BME280;45815;52.334;5.024;2022-12-05T13:39:37;102075.00;;;6.63;100.00
58955;BME280;45815;52.334;5.024;2022-12-05T13:42:24;102087.16;;;6.63;100.00
58955;BME280;45815;52.334;5.024;2022-12-05T13:45:06;102086.19;;;6.61;100.00
58955;BME280;45815;52.334;5.024;2022-12-05T14:04:01;102078.31;;;6.44;100.00
58955;BME280;45815;52.334;5.024;2022-12-05T14:17:22;102089.63;;;6.45;100.00
58955;BME280;45815;52.334;5.024;2022-12-05T14:19:59;102100.16;;;6.46;100.00
58955;BME280;45815;52.334;5.024;2022-12-05T14:25:33;102091.50;;;6.47;100.00
58955;BME280;45815;52.334;5.024;2022-12-05T14:31:32;102090.53;;;6.45;100.00
58955;BME280;45815;52.334;5.024;2022-12-05T14:39:30;102096.56;;;6.44;100.00
58955;BME280;45815;52.334;5.024;2022-12-05T14:41:58;102101.06;;;6.47;100.00
58955;BME280;45815;52.334;5.024;2022-12-05T14:44:26;102106.91;;;6.43;100.00
58955;BME280;45815;52.334;5.024;2022-12-05T14:47:00;102100.31;;;6.49;100.00
58955;BME280;45815;52.334;5.024;2022-12-05T14:52:24;102102.09;;;6.50;100.00
58955;BME280;45815;52.334;5.024;2022-12-05T14:54:53;102108.94;;;6.48;100.00
58955;BME280;45815;52.334;5.024;2022-12-05T14:57:21;102106.19;;;6.45;100.00
58955;BME280;45815;52.334;5.024;2022-12-05T14:59:55;102113.31;;;6.33;100.00
58955;BME280;45815;52.334;5.024;2022-12-05T15:02:42;102112.44;;;6.32;100.00
58955;BME280;45815;52.334;5.024;2022-12-05T15:07:42;102116.22;;;6.23;100.00
58955;BME280;45815;52.334;5.024;2022-12-05T15:12:40;102112.09;;;6.11;100.00
58955;BME280;45815;52.334;5.024;2022-12-05T15:15:18;102128.00;;;6.01;100.00
58955;BME280;45815;52.334;5.024;2022-12-05T15:18:08;102119.59;;;5.92;100.00
58955;BME280;45815;52.334;5.024;2022-12-05T15:23:44;102130.03;;;5.92;100.00
58955;BME280;45815;52.334;5.024;2022-12-05T15:31:44;102134.03;;;6.00;100.00
58955;BME280;45815;52.334;5.024;2022-12-05T15:36:44;102141.09;;;6.18;100.00
58955;BME280;45815;52.334;5.024;2022-12-05T15:39:17;102136.72;;;6.17;100.00
58955;BME280;45815;52.334;5.024;2022-12-05T15:41:48;102136.34;;;6.10;100.00
58955;BME280;45815;52.334;5.024;2022-12-05T15:44:13;102134.56;;;6.09;100.00
58955;BME280;45815;52.334;5.024;2022-12-05T15:46:40;102134.41;;;6.06;100.00